sensor_id;sensor_type;location;lat;lon;timestamp;P1;durP1;ratioP1;P2;durP2;ratioP2
8550;SDS011;4313;42.000;21.380;2023-04-03T00:00:55;5.60;;;3.50;;
8550;SDS011;4313;42.000;21.380;2023-04-03T00:03:23;4.63;;;3.30;;
8550;SDS011;4313;42.000;21.380;2023-04-03T00:05:51;6.20;;;3.90;;
8550;SDS011;4313;42.000;21.380;2023-04-03T00:08:18;7.17;;;4.80;;
8550;SDS011;4313;42.000;21.380;2023-04-03T00:10:46;6.63;;;4.70;;
8550;SDS011;4313;42.000;21.380;2023-04-03T00:13:13;6.93;;;4.30;;
8550;SDS011;4313;42.000;21.380;2023-04-03T00:15:41;5.97;;;4.00;;
8550;SDS011;4313;42.000;21.380;2023-04-03T00:18:08;6.10;;;3.97;;
8550;SDS011;4313;42.000;21.380;2023-04-03T00:20:35;6.00;;;4.13;;
8550;SDS011;4313;42.000;21.380;2023-04-03T00:23:05;5.83;;;4.00;;
8550;SDS011;4313;42.000;21.380;2023-04-03T00:25:51;5.97;;;4.37;;
8550;SDS011;4313;42.000;21.380;2023-04-03T00:31:35;8.20;;;4.87;;
8550;SDS011;4313;42.000;21.380;2023-04-03T00:34:02;6.13;;;4.10;;
8550;SDS011;4313;42.000;21.380;2023-04-03T00:36:30;6.37;;;4.77;;
8550;SDS011;4313;42.000;21.380;2023-04-03T00:38:58;6.80;;;5.00;;
8550;SDS011;4313;42.000;21.380;2023-04-03T00:41:25;7.17;;;4.57;;
8550;SDS011;4313;42.000;21.380;2023-04-03T00:43:52;7.07;;;4.53;;
8550;SDS011;4313;42.000;21.380;2023-04-03T00:46:20;6.43;;;4.70;;
8550;SDS011;4313;42.000;21.380;2023-04-03T00:48:47;7.90;;;4.73;;
8550;SDS011;4313;42.000;21.380;2023-04-03T00:51:16;5.70;;;4.20;;
8550;SDS011;4313;42.000;21.380;2023-04-03T00:53:46;6.97;;;4.47;;
8550;SDS011;4313;42.000;21.380;2023-04-03T00:56:16;8.53;;;4.43;;
8550;SDS011;4313;42.000;21.380;2023-04-03T00:59:04;5.70;;;4.20;;
8550;SDS011;4313;42.000;21.380;2023-04-03T01:01:33;5.33;;;4.10;;
8550;SDS011;4313;42.000;21.380;2023-04-03T01:04:01;6.83;;;4.23;;
8550;SDS011;4313;42.000;21.380;2023-04-03T01:06:29;6.37;;;4.13;;
8550;SDS011;4313;42.000;21.380;2023-04-03T01:09:04;5.73;;;3.80;;
8550;SDS011;4313;42.000;21.380;2023-04-03T01:11:33;4.37;;;3.90;;
8550;SDS011;4313;42.000;21.380;2023-04-03T01:14:01;5.87;;;3.90;;
8550;SDS011;4313;42.000;21.380;2023-04-03T01:16:51;6.80;;;4.00;;
8550;SDS011;4313;42.000;21.380;2023-04-03T01:19:19;4.50;;;3.67;;
8550;SDS011;4313;42.000;21.380;2023-04-03T01:22:04;4.53;;;3.60;;
8550;SDS011;4313;42.000;21.380;2023-04-03T01:24:38;4.97;;;3.70;;
8550;SDS011;4313;42.000;21.380;2023-04-03T01:27:09;5.40;;;3.87;;
8550;SDS011;4313;42.000;21.380;2023-04-03T01:29:56;5.57;;;3.73;;
8550;SDS011;4313;42.000;21.380;2023-04-03T01:32:24;5.27;;;3.83;;
8550;SDS011;4313;42.000;21.380;2023-04-03T01:34:52;6.33;;;4.73;;
8550;SDS011;4313;42.000;21.380;2023-04-03T01:37:37;7.53;;;4.40;;
8550;SDS011;4313;42.000;21.380;2023-04-03T01:40:05;6.40;;;4.60;;
8550;SDS011;4313;42.000;21.380;2023-04-03T01:42:34;7.63;;;4.90;;
8550;SDS011;4313;42.000;21.380;2023-04-03T01:45:02;6.60;;;4.83;;
8550;SDS011;4313;42.000;21.380;2023-04-03T01:47:31;7.93;;;5.40;;
8550;SDS011;4313;42.000;21.380;2023-04-03T01:49:58;9.37;;;5.40;;
8550;SDS011;4313;42.000;21.380;2023-04-03T01:52:27;7.23;;;4.90;;
8550;SDS011;4313;42.000;21.380;2023-04-03T01:54:54;6.07;;;4.70;;
8550;SDS011;4313;42.000;21.380;2023-04-03T01:57:21;8.30;;;5.00;;
8550;SDS011;4313;42.000;21.380;2023-04-03T01:59:49;5.63;;;4.17;;
8550;SDS011;4313;42.000;21.380;2023-04-03T02:02:16;6.57;;;4.83;;
8550;SDS011;4313;42.000;21.380;2023-04-03T02:04:46;7.43;;;4.43;;
8550;SDS011;4313;42.000;21.380;2023-04-03T02:07:32;7.00;;;4.50;;
8550;SDS011;4313;42.000;21.380;2023-04-03T02:09:59;5.47;;;3.83;;
8550;SDS011;4313;42.000;21.380;2023-04-03T02:12:26;5.20;;;4.20;;
8550;SDS011;4313;42.000;21.380;2023-04-03T02:14:53;6.00;;;4.53;;
8550;SDS011;4313;42.000;21.380;2023-04-03T02:17:20;7.77;;;5.23;;
8550;SDS011;4313;42.000;21.380;2023-04-03T02:19:49;8.90;;;5.77;;
8550;SDS011;4313;42.000;21.380;2023-04-03T02:22:16;8.10;;;5.80;;
8550;SDS011;4313;42.000;21.380;2023-04-03T02:24:44;7.03;;;5.43;;
8550;SDS011;4313;42.000;21.380;2023-04-03T02:27:29;7.40;;;5.50;;
8550;SDS011;4313;42.000;21.380;2023-04-03T02:29:57;7.33;;;5.07;;
8550;SDS011;4313;42.000;21.380;2023-04-03T02:32:24;6.63;;;4.90;;
8550;SDS011;4313;42.000;21.380;2023-04-03T02:34:52;9.83;;;5.37;;
8550;SDS011;4313;42.000;21.380;2023-04-03T02:37:20;6.57;;;4.77;;
8550;SDS011;4313;42.000;21.380;2023-04-03T02:39:47;7.23;;;4.03;;
8550;SDS011;4313;42.000;21.380;2023-04-03T02:42:33;6.53;;;4.40;;
8550;SDS011;4313;42.000;21.380;2023-04-03T02:45:02;5.17;;;4.10;;
8550;SDS011;4313;42.000;21.380;2023-04-03T02:47:30;5.57;;;3.70;;
8550;SDS011;4313;42.000;21.380;2023-04-03T02:49:58;5.87;;;3.97;;
8550;SDS011;4313;42.000;21.380;2023-04-03T02:52:25;5.57;;;3.90;;
8550;SDS011;4313;42.000;21.380;2023-04-03T02:54:55;6.33;;;3.60;;
8550;SDS011;4313;42.000;21.380;2023-04-03T02:57:22;6.10;;;3.90;;
8550;SDS011;4313;42.000;21.380;2023-04-03T02:59:49;6.37;;;4.37;;
8550;SDS011;4313;42.000;21.380;2023-04-03T03:02:36;5.83;;;4.50;;
8550;SDS011;4313;42.000;21.380;2023-04-03T03:05:04;6.27;;;4.63;;
8550;SDS011;4313;42.000;21.380;2023-04-03T03:07:33;6.50;;;4.43;;
8550;SDS011;4313;42.000;21.380;2023-04-03T03:10:00;4.90;;;4.03;;
8550;SDS011;4313;42.000;21.380;2023-04-03T03:12:27;6.57;;;3.90;;
8550;SDS011;4313;42.000;21.380;2023-04-03T03:14:55;5.47;;;3.47;;
8550;SDS011;4313;42.000;21.380;2023-04-03T03:17:22;6.13;;;4.20;;
8550;SDS011;4313;42.000;21.380;2023-04-03T03:19:49;4.00;;;3.60;;
8550;SDS011;4313;42.000;21.380;2023-04-03T03:22:18;5.63;;;3.80;;
8550;SDS011;4313;42.000;21.380;2023-04-03T03:24:45;5.47;;;4.27;;
8550;SDS011;4313;42.000;21.380;2023-04-03T03:27:12;5.27;;;4.17;;
8550;SDS011;4313;42.000;21.380;2023-04-03T03:29:41;6.43;;;4.00;;
8550;SDS011;4313;42.000;21.380;2023-04-03T03:32:09;6.83;;;5.20;;
8550;SDS011;4313;42.000;21.380;2023-04-03T03:34:36;8.63;;;5.20;;
8550;SDS011;4313;42.000;21.380;2023-04-03T03:37:04;5.83;;;4.53;;
8550;SDS011;4313;42.000;21.380;2023-04-03T03:39:36;7.43;;;4.80;;
8550;SDS011;4313;42.000;21.380;2023-04-03T03:42:03;6.60;;;5.10;;
8550;SDS011;4313;42.000;21.380;2023-04-03T03:44:30;6.40;;;4.60;;
8550;SDS011;4313;42.000;21.380;2023-04-03T03:46:57;5.97;;;4.60;;
8550;SDS011;4313;42.000;21.380;2023-04-03T03:49:25;8.03;;;4.60;;
8550;SDS011;4313;42.000;21.380;2023-04-03T03:51:52;5.17;;;4.23;;
8550;SDS011;4313;42.000;21.380;2023-04-03T03:54:19;6.33;;;4.73;;
8550;SDS011;4313;42.000;21.380;2023-04-03T03:56:49;5.83;;;4.53;;
8550;SDS011;4313;42.000;21.380;2023-04-03T03:59:16;5.70;;;4.67;;
8550;SDS011;4313;42.000;21.380;2023-04-03T04:01:44;10.43;;;5.10;;
8550;SDS011;4313;42.000;21.380;2023-04-03T04:04:11;7.00;;;4.37;;
8550;SDS011;4313;42.000;21.380;2023-04-03T04:06:38;6.83;;;4.10;;
8550;SDS011;4313;42.000;21.380;2023-04-03T04:09:08;6.03;;;4.37;;
8550;SDS011;4313;42.000;21.380;2023-04-03T04:11:57;6.30;;;4.27;;
8550;SDS011;4313;42.000;21.380;2023-04-03T04:14:26;5.60;;;4.17;;
8550;SDS011;4313;42.000;21.380;2023-04-03T04:16:57;6.80;;;4.77;;
8550;SDS011;4313;42.000;21.380;2023-04-03T04:19:26;5.27;;;4.60;;
8550;SDS011;4313;42.000;21.380;2023-04-03T04:21:53;5.60;;;4.47;;
8550;SDS011;4313;42.000;21.380;2023-04-03T04:24:21;5.67;;;4.47;;
8550;SDS011;4313;42.000;21.380;2023-04-03T04:26:51;6.20;;;4.27;;
8550;SDS011;4313;42.000;21.380;2023-04-03T04:29:21;5.60;;;4.00;;
8550;SDS011;4313;42.000;21.380;2023-04-03T04:31:50;5.80;;;3.90;;
8550;SDS011;4313;42.000;21.380;2023-04-03T04:34:17;6.23;;;3.97;;
8550;SDS011;4313;42.000;21.380;2023-04-03T04:36:45;6.30;;;4.60;;
8550;SDS011;4313;42.000;21.380;2023-04-03T04:39:12;5.63;;;4.53;;
8550;SDS011;4313;42.000;21.380;2023-04-03T04:41:40;9.87;;;7.60;;
8550;SDS011;4313;42.000;21.380;2023-04-03T04:44:08;16.67;;;12.13;;
8550;SDS011;4313;42.000;21.380;2023-04-03T04:46:37;18.53;;;12.40;;
8550;SDS011;4313;42.000;21.380;2023-04-03T04:49:05;17.23;;;11.30;;
8550;SDS011;4313;42.000;21.380;2023-04-03T04:51:32;12.20;;;9.03;;
8550;SDS011;4313;42.000;21.380;2023-04-03T04:54:00;13.70;;;9.13;;
8550;SDS011;4313;42.000;21.380;2023-04-03T04:56:27;16.07;;;10.30;;
8550;SDS011;4313;42.000;21.380;2023-04-03T04:58:57;15.20;;;11.73;;
8550;SDS011;4313;42.000;21.380;2023-04-03T05:01:26;13.57;;;10.17;;
8550;SDS011;4313;42.000;21.380;2023-04-03T05:04:23;12.80;;;8.93;;
8550;SDS011;4313;42.000;21.380;2023-04-03T05:06:55;9.40;;;7.97;;
8550;SDS011;4313;42.000;21.380;2023-04-03T05:09:26;11.40;;;6.77;;
8550;SDS011;4313;42.000;21.380;2023-04-03T05:11:54;11.63;;;7.80;;
8550;SDS011;4313;42.000;21.380;2023-04-03T05:14:25;13.57;;;10.23;;
8550;SDS011;4313;42.000;21.380;2023-04-03T05:16:55;16.60;;;12.63;;
8550;SDS011;4313;42.000;21.380;2023-04-03T05:19:28;14.77;;;10.97;;
8550;SDS011;4313;42.000;21.380;2023-04-03T05:21:57;10.87;;;8.53;;
8550;SDS011;4313;42.000;21.380;2023-04-03T05:24:24;11.60;;;8.52;;
8550;SDS011;4313;42.000;21.380;2023-04-03T05:26:51;10.00;;;7.67;;
8550;SDS011;4313;42.000;21.380;2023-04-03T05:29:19;8.13;;;7.30;;
8550;SDS011;4313;42.000;21.380;2023-04-03T05:31:48;11.03;;;7.50;;
8550;SDS011;4313;42.000;21.380;2023-04-03T05:34:16;10.27;;;7.60;;
8550;SDS011;4313;42.000;21.380;2023-04-03T05:36:47;13.35;;;8.27;;
8550;SDS011;4313;42.000;21.380;2023-04-03T05:39:15;15.88;;;14.23;;
8550;SDS011;4313;42.000;21.380;2023-04-03T05:41:45;12.75;;;11.35;;
8550;SDS011;4313;42.000;21.380;2023-04-03T05:44:12;12.40;;;10.13;;
8550;SDS011;4313;42.000;21.380;2023-04-03T05:46:41;16.60;;;10.45;;
8550;SDS011;4313;42.000;21.380;2023-04-03T05:49:09;20.77;;;15.05;;
8550;SDS011;4313;42.000;21.380;2023-04-03T05:51:37;21.15;;;14.80;;
8550;SDS011;4313;42.000;21.380;2023-04-03T05:54:29;16.38;;;12.43;;
8550;SDS011;4313;42.000;21.380;2023-04-03T05:57:03;21.48;;;15.35;;
8550;SDS011;4313;42.000;21.380;2023-04-03T05:59:49;20.20;;;13.43;;
8550;SDS011;4313;42.000;21.380;2023-04-03T06:02:17;14.88;;;12.65;;
8550;SDS011;4313;42.000;21.380;2023-04-03T06:04:50;16.08;;;12.90;;
8550;SDS011;4313;42.000;21.380;2023-04-03T06:07:18;15.27;;;12.35;;
8550;SDS011;4313;42.000;21.380;2023-04-03T06:09:50;18.27;;;11.10;;
8550;SDS011;4313;42.000;21.380;2023-04-03T06:12:17;13.45;;;10.93;;
8550;SDS011;4313;42.000;21.380;2023-04-03T06:14:45;14.65;;;13.05;;
8550;SDS011;4313;42.000;21.380;2023-04-03T06:17:13;14.88;;;11.40;;
8550;SDS011;4313;42.000;21.380;2023-04-03T06:19:41;12.65;;;10.40;;
8550;SDS011;4313;42.000;21.380;2023-04-03T06:22:08;11.55;;;9.15;;
8550;SDS011;4313;42.000;21.380;2023-04-03T06:24:37;12.60;;;8.70;;
8550;SDS011;4313;42.000;21.380;2023-04-03T06:27:08;10.48;;;8.40;;
8550;SDS011;4313;42.000;21.380;2023-04-03T06:29:36;12.23;;;9.52;;
8550;SDS011;4313;42.000;21.380;2023-04-03T06:32:03;11.38;;;8.60;;
8550;SDS011;4313;42.000;21.380;2023-04-03T06:34:30;9.23;;;7.70;;
8550;SDS011;4313;42.000;21.380;2023-04-03T06:36:58;11.02;;;7.68;;
8550;SDS011;4313;42.000;21.380;2023-04-03T06:39:25;10.88;;;7.43;;
8550;SDS011;4313;42.000;21.380;2023-04-03T06:41:52;13.63;;;7.30;;
8550;SDS011;4313;42.000;21.380;2023-04-03T06:44:29;12.77;;;7.00;;
8550;SDS011;4313;42.000;21.380;2023-04-03T06:46:59;12.05;;;7.07;;
8550;SDS011;4313;42.000;21.380;2023-04-03T06:49:26;12.32;;;6.97;;
8550;SDS011;4313;42.000;21.380;2023-04-03T06:51:54;12.82;;;7.32;;
8550;SDS011;4313;42.000;21.380;2023-04-03T06:54:21;12.27;;;7.57;;
8550;SDS011;4313;42.000;21.380;2023-04-03T06:56:48;10.88;;;6.85;;
8550;SDS011;4313;42.000;21.380;2023-04-03T06:59:16;13.90;;;7.43;;
8550;SDS011;4313;42.000;21.380;2023-04-03T07:01:44;19.17;;;9.10;;
8550;SDS011;4313;42.000;21.380;2023-04-03T07:04:12;14.57;;;7.88;;
8550;SDS011;4313;42.000;21.380;2023-04-03T07:06:40;17.98;;;8.90;;
8550;SDS011;4313;42.000;21.380;2023-04-03T07:09:08;16.80;;;10.20;;
8550;SDS011;4313;42.000;21.380;2023-04-03T07:11:36;17.55;;;8.30;;
8550;SDS011;4313;42.000;21.380;2023-04-03T07:14:03;18.88;;;7.85;;
8550;SDS011;4313;42.000;21.380;2023-04-03T07:16:32;22.58;;;14.25;;
8550;SDS011;4313;42.000;21.380;2023-04-03T07:19:01;20.65;;;12.13;;
8550;SDS011;4313;42.000;21.380;2023-04-03T07:21:28;19.58;;;9.50;;
8550;SDS011;4313;42.000;21.380;2023-04-03T07:23:56;49.25;;;29.65;;
8550;SDS011;4313;42.000;21.380;2023-04-03T07:26:23;18.98;;;9.27;;
8550;SDS011;4313;42.000;21.380;2023-04-03T07:28:50;17.02;;;9.85;;
8550;SDS011;4313;42.000;21.380;2023-04-03T07:31:17;14.90;;;7.70;;
8550;SDS011;4313;42.000;21.380;2023-04-03T07:33:48;28.15;;;18.77;;
8550;SDS011;4313;42.000;21.380;2023-04-03T07:36:18;19.58;;;13.15;;
8550;SDS011;4313;42.000;21.380;2023-04-03T07:38:47;18.75;;;14.60;;
8550;SDS011;4313;42.000;21.380;2023-04-03T07:41:15;12.52;;;8.98;;
8550;SDS011;4313;42.000;21.380;2023-04-03T07:43:43;11.18;;;8.55;;
8550;SDS011;4313;42.000;21.380;2023-04-03T07:46:11;13.18;;;8.77;;
8550;SDS011;4313;42.000;21.380;2023-04-03T07:48:39;15.43;;;9.75;;
8550;SDS011;4313;42.000;21.380;2023-04-03T07:51:06;16.67;;;8.80;;
8550;SDS011;4313;42.000;21.380;2023-04-03T07:53:35;16.65;;;8.80;;
8550;SDS011;4313;42.000;21.380;2023-04-03T07:56:02;11.98;;;8.88;;
8550;SDS011;4313;42.000;21.380;2023-04-03T07:58:29;16.02;;;9.13;;
8550;SDS011;4313;42.000;21.380;2023-04-03T08:00:56;18.95;;;11.32;;
8550;SDS011;4313;42.000;21.380;2023-04-03T08:03:23;16.15;;;9.95;;
8550;SDS011;4313;42.000;21.380;2023-04-03T08:05:50;14.40;;;9.32;;
8550;SDS011;4313;42.000;21.380;2023-04-03T08:08:19;16.30;;;9.68;;
8550;SDS011;4313;42.000;21.380;2023-04-03T08:10:50;14.80;;;8.57;;
8550;SDS011;4313;42.000;21.380;2023-04-03T08:13:17;11.93;;;8.38;;
8550;SDS011;4313;42.000;21.380;2023-04-03T08:16:07;15.73;;;9.65;;
8550;SDS011;4313;42.000;21.380;2023-04-03T08:18:38;16.75;;;8.85;;
8550;SDS011;4313;42.000;21.380;2023-04-03T08:21:06;10.43;;;8.02;;
8550;SDS011;4313;42.000;21.380;2023-04-03T08:23:34;14.18;;;7.78;;
8550;SDS011;4313;42.000;21.380;2023-04-03T08:26:06;11.57;;;8.38;;
8550;SDS011;4313;42.000;21.380;2023-04-03T08:28:34;11.25;;;8.95;;
8550;SDS011;4313;42.000;21.380;2023-04-03T08:31:02;9.25;;;6.60;;
8550;SDS011;4313;42.000;21.380;2023-04-03T08:33:31;8.13;;;6.40;;
8550;SDS011;4313;42.000;21.380;2023-04-03T08:35:59;7.82;;;6.00;;
8550;SDS011;4313;42.000;21.380;2023-04-03T08:38:26;6.45;;;5.85;;
8550;SDS011;4313;42.000;21.380;2023-04-03T08:40:59;8.00;;;6.00;;
8550;SDS011;4313;42.000;21.380;2023-04-03T08:43:33;9.35;;;7.40;;
8550;SDS011;4313;42.000;21.380;2023-04-03T08:46:04;7.43;;;6.30;;
8550;SDS011;4313;42.000;21.380;2023-04-03T08:48:33;8.15;;;6.15;;
8550;SDS011;4313;42.000;21.380;2023-04-03T08:51:03;13.43;;;9.15;;
8550;SDS011;4313;42.000;21.380;2023-04-03T08:53:34;14.73;;;9.07;;
8550;SDS011;4313;42.000;21.380;2023-04-03T08:56:02;8.65;;;6.07;;
8550;SDS011;4313;42.000;21.380;2023-04-03T08:58:35;8.75;;;6.13;;
8550;SDS011;4313;42.000;21.380;2023-04-03T09:01:12;5.05;;;4.05;;
8550;SDS011;4313;42.000;21.380;2023-04-03T09:03:44;5.28;;;4.55;;
8550;SDS011;4313;42.000;21.380;2023-04-03T09:06:12;8.02;;;5.43;;
8550;SDS011;4313;42.000;21.380;2023-04-03T09:08:43;4.35;;;3.95;;
8550;SDS011;4313;42.000;21.380;2023-04-03T09:11:13;6.95;;;5.15;;
8550;SDS011;4313;42.000;21.380;2023-04-03T09:13:46;4.75;;;4.10;;
8550;SDS011;4313;42.000;21.380;2023-04-03T09:16:21;5.10;;;4.60;;
8550;SDS011;4313;42.000;21.380;2023-04-03T09:19:12;8.38;;;5.10;;
8550;SDS011;4313;42.000;21.380;2023-04-03T09:21:45;7.35;;;4.80;;
8550;SDS011;4313;42.000;21.380;2023-04-03T09:24:12;5.88;;;5.20;;
8550;SDS011;4313;42.000;21.380;2023-04-03T09:26:44;5.03;;;4.05;;
8550;SDS011;4313;42.000;21.380;2023-04-03T09:29:15;4.32;;;3.92;;
8550;SDS011;4313;42.000;21.380;2023-04-03T09:31:46;4.93;;;4.15;;
8550;SDS011;4313;42.000;21.380;2023-04-03T09:34:17;4.22;;;3.83;;
8550;SDS011;4313;42.000;21.380;2023-04-03T09:36:48;4.18;;;3.70;;
8550;SDS011;4313;42.000;21.380;2023-04-03T09:39:17;4.43;;;3.70;;
8550;SDS011;4313;42.000;21.380;2023-04-03T09:41:55;3.85;;;3.45;;
8550;SDS011;4313;42.000;21.380;2023-04-03T09:44:26;3.90;;;3.60;;
8550;SDS011;4313;42.000;21.380;2023-04-03T09:46:54;4.68;;;3.90;;
8550;SDS011;4313;42.000;21.380;2023-04-03T09:49:21;5.85;;;4.75;;
8550;SDS011;4313;42.000;21.380;2023-04-03T09:51:48;6.13;;;4.40;;
8550;SDS011;4313;42.000;21.380;2023-04-03T09:54:26;5.55;;;4.85;;
8550;SDS011;4313;42.000;21.380;2023-04-03T09:56:57;4.68;;;4.20;;
8550;SDS011;4313;42.000;21.380;2023-04-03T09:59:30;4.88;;;4.25;;
8550;SDS011;4313;42.000;21.380;2023-04-03T10:01:58;5.03;;;4.15;;
8550;SDS011;4313;42.000;21.380;2023-04-03T10:04:36;4.65;;;3.88;;
8550;SDS011;4313;42.000;21.380;2023-04-03T10:07:04;4.40;;;4.00;;
8550;SDS011;4313;42.000;21.380;2023-04-03T10:09:56;5.50;;;4.10;;
8550;SDS011;4313;42.000;21.380;2023-04-03T10:12:24;4.28;;;3.88;;
8550;SDS011;4313;42.000;21.380;2023-04-03T10:14:58;3.30;;;3.00;;
8550;SDS011;4313;42.000;21.380;2023-04-03T10:17:30;3.88;;;3.20;;
8550;SDS011;4313;42.000;21.380;2023-04-03T10:20:06;2.95;;;2.70;;
8550;SDS011;4313;42.000;21.380;2023-04-03T10:22:39;4.05;;;3.65;;
8550;SDS011;4313;42.000;21.380;2023-04-03T10:25:11;4.35;;;3.72;;
8550;SDS011;4313;42.000;21.380;2023-04-03T10:27:44;4.20;;;3.80;;
8550;SDS011;4313;42.000;21.380;2023-04-03T10:33:15;4.38;;;3.97;;
8550;SDS011;4313;42.000;21.380;2023-04-03T10:35:49;4.88;;;4.40;;
8550;SDS011;4313;42.000;21.380;2023-04-03T10:38:28;5.45;;;4.60;;
8550;SDS011;4313;42.000;21.380;2023-04-03T10:40:59;4.20;;;3.80;;
8550;SDS011;4313;42.000;21.380;2023-04-03T10:43:31;5.45;;;4.70;;
8550;SDS011;4313;42.000;21.380;2023-04-03T10:46:03;5.82;;;5.05;;
8550;SDS011;4313;42.000;21.380;2023-04-03T10:48:34;9.50;;;7.57;;
8550;SDS011;4313;42.000;21.380;2023-04-03T10:51:11;7.75;;;5.82;;
8550;SDS011;4313;42.000;21.380;2023-04-03T10:53:47;5.03;;;4.53;;
8550;SDS011;4313;42.000;21.380;2023-04-03T10:56:19;4.95;;;4.00;;
8550;SDS011;4313;42.000;21.380;2023-04-03T10:59:13;8.35;;;4.80;;
8550;SDS011;4313;42.000;21.380;2023-04-03T11:01:46;5.10;;;4.57;;
8550;SDS011;4313;42.000;21.380;2023-04-03T11:04:16;9.88;;;6.50;;
8550;SDS011;4313;42.000;21.380;2023-04-03T11:06:47;5.72;;;5.13;;
8550;SDS011;4313;42.000;21.380;2023-04-03T11:09:19;12.88;;;9.40;;
8550;SDS011;4313;42.000;21.380;2023-04-03T11:11:49;15.82;;;11.95;;
8550;SDS011;4313;42.000;21.380;2023-04-03T11:14:21;9.40;;;6.63;;
8550;SDS011;4313;42.000;21.380;2023-04-03T11:16:55;9.40;;;8.40;;
8550;SDS011;4313;42.000;21.380;2023-04-03T11:19:31;6.40;;;5.80;;
8550;SDS011;4313;42.000;21.380;2023-04-03T11:22:03;6.10;;;4.80;;
8550;SDS011;4313;42.000;21.380;2023-04-03T11:24:33;5.43;;;4.90;;
8550;SDS011;4313;42.000;21.380;2023-04-03T11:27:03;5.93;;;5.30;;
8550;SDS011;4313;42.000;21.380;2023-04-03T11:29:32;7.40;;;5.78;;
8550;SDS011;4313;42.000;21.380;2023-04-03T11:32:08;12.80;;;6.20;;
8550;SDS011;4313;42.000;21.380;2023-04-03T11:34:41;6.65;;;5.70;;
8550;SDS011;4313;42.000;21.380;2023-04-03T11:37:13;6.95;;;5.53;;
8550;SDS011;4313;42.000;21.380;2023-04-03T11:39:47;8.35;;;5.68;;
8550;SDS011;4313;42.000;21.380;2023-04-03T11:42:21;6.70;;;6.00;;
8550;SDS011;4313;42.000;21.380;2023-04-03T11:47:51;6.57;;;5.82;;
8550;SDS011;4313;42.000;21.380;2023-04-03T11:53:33;6.53;;;5.63;;
8550;SDS011;4313;42.000;21.380;2023-04-03T11:56:03;7.20;;;5.38;;
8550;SDS011;4313;42.000;21.380;2023-04-03T11:58:31;5.45;;;4.95;;
8550;SDS011;4313;42.000;21.380;2023-04-03T12:01:00;5.95;;;5.10;;
8550;SDS011;4313;42.000;21.380;2023-04-03T12:03:35;5.63;;;5.05;;
8550;SDS011;4313;42.000;21.380;2023-04-03T12:06:49;6.45;;;5.70;;
8550;SDS011;4313;42.000;21.380;2023-04-03T12:12:35;7.90;;;6.47;;
8550;SDS011;4313;42.000;21.380;2023-04-03T12:24:49;8.00;;;7.15;;
8550;SDS011;4313;42.000;21.380;2023-04-03T12:27:28;8.68;;;6.90;;
8550;SDS011;4313;42.000;21.380;2023-04-03T12:30:11;7.43;;;6.50;;
8550;SDS011;4313;42.000;21.380;2023-04-03T12:32:46;9.15;;;7.82;;
8550;SDS011;4313;42.000;21.380;2023-04-03T12:35:21;9.75;;;8.50;;
8550;SDS011;4313;42.000;21.380;2023-04-03T12:40:43;10.48;;;8.18;;
8550;SDS011;4313;42.000;21.380;2023-04-03T12:43:18;8.20;;;7.40;;
8550;SDS011;4313;42.000;21.380;2023-04-03T12:45:52;8.70;;;7.57;;
8550;SDS011;4313;42.000;21.380;2023-04-03T12:48:25;8.55;;;7.65;;
8550;SDS011;4313;42.000;21.380;2023-04-03T12:50:55;8.65;;;7.75;;
8550;SDS011;4313;42.000;21.380;2023-04-03T12:53:23;9.70;;;8.13;;
8550;SDS011;4313;42.000;21.380;2023-04-03T12:55:53;9.68;;;8.73;;
8550;SDS011;4313;42.000;21.380;2023-04-03T12:58:22;9.52;;;8.32;;
8550;SDS011;4313;42.000;21.380;2023-04-03T13:01:00;10.43;;;9.32;;
8550;SDS011;4313;42.000;21.380;2023-04-03T13:03:28;12.38;;;10.90;;
8550;SDS011;4313;42.000;21.380;2023-04-03T13:05:58;12.75;;;11.07;;
8550;SDS011;4313;42.000;21.380;2023-04-03T13:08:27;13.23;;;10.93;;
8550;SDS011;4313;42.000;21.380;2023-04-03T13:10:56;13.00;;;11.70;;
8550;SDS011;4313;42.000;21.380;2023-04-03T13:13:25;10.35;;;9.35;;
8550;SDS011;4313;42.000;21.380;2023-04-03T13:15:53;11.73;;;10.43;;
8550;SDS011;4313;42.000;21.380;2023-04-03T13:18:21;13.50;;;12.10;;
8550;SDS011;4313;42.000;21.380;2023-04-03T13:20:50;12.13;;;10.93;;
8550;SDS011;4313;42.000;21.380;2023-04-03T13:23:18;11.00;;;9.90;;
8550;SDS011;4313;42.000;21.380;2023-04-03T13:25:48;11.32;;;10.13;;
8550;SDS011;4313;42.000;21.380;2023-04-03T13:28:17;11.35;;;10.25;;
8550;SDS011;4313;42.000;21.380;2023-04-03T13:30:57;10.90;;;9.68;;
8550;SDS011;4313;42.000;21.380;2023-04-03T13:33:28;16.92;;;15.32;;
8550;SDS011;4313;42.000;21.380;2023-04-03T13:36:00;12.15;;;10.32;;
8550;SDS011;4313;42.000;21.380;2023-04-03T13:38:31;11.13;;;10.02;;
8550;SDS011;4313;42.000;21.380;2023-04-03T13:40:59;10.23;;;9.23;;
8550;SDS011;4313;42.000;21.380;2023-04-03T13:43:30;12.80;;;11.52;;
8550;SDS011;4313;42.000;21.380;2023-04-03T13:46:02;11.93;;;10.77;;
8550;SDS011;4313;42.000;21.380;2023-04-03T13:48:36;14.95;;;13.48;;
8550;SDS011;4313;42.000;21.380;2023-04-03T13:51:05;13.32;;;11.57;;
8550;SDS011;4313;42.000;21.380;2023-04-03T13:53:43;12.90;;;11.52;;
8550;SDS011;4313;42.000;21.380;2023-04-03T13:56:31;9.57;;;8.68;;
8550;SDS011;4313;42.000;21.380;2023-04-03T13:59:01;9.88;;;8.55;;
8550;SDS011;4313;42.000;21.380;2023-04-03T14:01:38;10.10;;;9.15;;
8550;SDS011;4313;42.000;21.380;2023-04-03T14:04:12;10.63;;;9.52;;
8550;SDS011;4313;42.000;21.380;2023-04-03T14:06:42;12.55;;;11.35;;
8550;SDS011;4313;42.000;21.380;2023-04-03T14:09:12;11.77;;;10.57;;
8550;SDS011;4313;42.000;21.380;2023-04-03T14:11:40;11.88;;;10.77;;
8550;SDS011;4313;42.000;21.380;2023-04-03T14:14:10;12.30;;;10.82;;
8550;SDS011;4313;42.000;21.380;2023-04-03T14:16:41;13.50;;;12.10;;
8550;SDS011;4313;42.000;21.380;2023-04-03T14:19:13;17.70;;;15.93;;
8550;SDS011;4313;42.000;21.380;2023-04-03T14:21:44;17.58;;;15.88;;
8550;SDS011;4313;42.000;21.380;2023-04-03T14:24:13;17.67;;;15.98;;
8550;SDS011;4313;42.000;21.380;2023-04-03T14:26:41;17.48;;;15.63;;
8550;SDS011;4313;42.000;21.380;2023-04-03T14:29:09;15.23;;;13.50;;
8550;SDS011;4313;42.000;21.380;2023-04-03T14:31:37;14.02;;;12.63;;
8550;SDS011;4313;42.000;21.380;2023-04-03T14:34:05;14.48;;;12.98;;
8550;SDS011;4313;42.000;21.380;2023-04-03T14:36:33;13.10;;;11.82;;
8550;SDS011;4313;42.000;21.380;2023-04-03T14:39:00;15.93;;;14.32;;
8550;SDS011;4313;42.000;21.380;2023-04-03T14:41:29;17.50;;;14.93;;
8550;SDS011;4313;42.000;21.380;2023-04-03T14:43:56;14.02;;;12.50;;
8550;SDS011;4313;42.000;21.380;2023-04-03T14:46:25;12.95;;;11.65;;
8550;SDS011;4313;42.000;21.380;2023-04-03T14:48:55;16.00;;;14.40;;
8550;SDS011;4313;42.000;21.380;2023-04-03T14:51:22;15.98;;;14.27;;
8550;SDS011;4313;42.000;21.380;2023-04-03T14:53:50;16.20;;;14.50;;
8550;SDS011;4313;42.000;21.380;2023-04-03T14:56:18;14.30;;;12.50;;
8550;SDS011;4313;42.000;21.380;2023-04-03T14:58:48;13.85;;;12.40;;
8550;SDS011;4313;42.000;21.380;2023-04-03T15:01:24;16.30;;;14.57;;
8550;SDS011;4313;42.000;21.380;2023-04-03T15:03:51;15.38;;;13.75;;
8550;SDS011;4313;42.000;21.380;2023-04-03T15:06:19;16.85;;;15.20;;
8550;SDS011;4313;42.000;21.380;2023-04-03T15:08:46;17.05;;;15.18;;
8550;SDS011;4313;42.000;21.380;2023-04-03T15:11:14;60.88;;;42.30;;
8550;SDS011;4313;42.000;21.380;2023-04-03T15:13:41;26.00;;;22.90;;
8550;SDS011;4313;42.000;21.380;2023-04-03T15:16:13;21.38;;;19.02;;
8550;SDS011;4313;42.000;21.380;2023-04-03T15:18:42;17.35;;;15.63;;
8550;SDS011;4313;42.000;21.380;2023-04-03T15:21:10;16.73;;;15.02;;
8550;SDS011;4313;42.000;21.380;2023-04-03T15:23:37;18.20;;;15.98;;
8550;SDS011;4313;42.000;21.380;2023-04-03T15:26:04;15.13;;;13.52;;
8550;SDS011;4313;42.000;21.380;2023-04-03T15:28:32;19.65;;;17.58;;
8550;SDS011;4313;42.000;21.380;2023-04-03T15:31:01;26.52;;;23.73;;
8550;SDS011;4313;42.000;21.380;2023-04-03T15:33:31;32.95;;;28.52;;
8550;SDS011;4313;42.000;21.380;2023-04-03T15:35:58;23.13;;;20.63;;
8550;SDS011;4313;42.000;21.380;2023-04-03T15:38:26;22.45;;;19.98;;
8550;SDS011;4313;42.000;21.380;2023-04-03T15:40:53;18.77;;;16.77;;